Time;durP1;ratioP1;P1;durP2;ratioP2;P2;SDS_P1;SDS_P2;PMS_P1;PMS_P2;Temp;Humidity;BMP_temperature;BMP_pressure;BME280_temperature;BME280_humidity;BME280_pressure;Samples;Min_cycle;Max_cycle;Signal;HPM_P1;HPM_P2
2022/01/10 00:01:47;;;;;;;;;3.40;3.40;;;;;4.69;84.70;99284.59;5112512;28;8998;-58
2022/01/10 00:04:16;;;;;;;;;4.80;4.80;;;;;4.71;84.45;99292.41;5114649;28;8846;-59
2022/01/10 00:06:43;;;;;;;;;6.80;5.60;;;;;4.70;84.71;99288.06;5114695;28;8847;-58
2022/01/10 00:09:11;;;;;;;;;8.20;8.20;;;;;4.70;84.48;99288.91;5115853;28;8856;-59
2022/01/10 00:11:39;;;;;;;;;6.60;6.60;;;;;4.71;84.34;99292.41;5110227;28;8836;-58
2022/01/10 00:14:06;;;;;;;;;6.40;6.40;;;;;4.71;84.43;99298.53;5112934;28;8889;-59
2022/01/10 00:16:34;;;;;;;;;6.00;6.00;;;;;4.72;84.17;99310.75;5100527;28;9742;-59
2022/01/10 00:19:02;;;;;;;;;7.40;7.40;;;;;4.73;84.16;99312.44;5088092;28;8865;-59
2022/01/10 00:21:30;;;;;;;;;6.00;5.60;;;;;4.74;84.63;99311.53;5090698;28;9713;-59
2022/01/10 00:23:57;;;;;;;;;6.20;4.80;;;;;4.75;84.69;99317.63;5087471;28;8854;-58
2022/01/10 00:26:25;;;;;;;;;10.00;7.00;;;;;4.75;84.60;99309.72;5088561;28;8960;-59
2022/01/10 00:28:53;;;;;;;;;5.20;4.00;;;;;4.75;84.64;99314.97;5091726;28;8856;-59
2022/01/10 00:31:21;;;;;;;;;9.00;7.80;;;;;4.75;84.51;99318.47;5091646;28;8846;-59
2022/01/10 00:33:48;;;;;;;;;3.00;3.00;;;;;4.75;84.44;99315.84;5089990;28;8869;-59
2022/01/10 00:36:17;;;;;;;;;6.40;6.40;;;;;4.75;84.45;99320.25;5088664;28;8918;-59
2022/01/10 00:38:44;;;;;;;;;5.60;5.60;;;;;4.75;84.55;99313.22;5089345;28;8862;-59
2022/01/10 00:41:12;;;;;;;;;6.80;6.40;;;;;4.77;84.36;99328.91;5087170;28;8833;-59
2022/01/10 00:43:45;;;;;;;;;5.60;4.00;;;;;4.77;84.74;99331.53;5087714;28;8838;-59
2022/01/10 00:46:18;;;;;;;;;4.80;4.80;;;;;4.76;84.53;99337.75;5099484;28;8890;-59
2022/01/10 00:48:45;;;;;;;;;10.20;6.80;;;;;4.77;84.52;99344.72;5111512;28;8987;-59
2022/01/10 00:51:13;;;;;;;;;6.20;6.20;;;;;4.76;84.66;99340.41;5111646;28;8836;-59
2022/01/10 00:53:47;;;;;;;;;7.40;6.00;;;;;4.77;84.81;99342.94;5112873;28;8858;-59
2022/01/10 00:56:15;;;;;;;;;1.00;0.40;;;;;4.78;84.36;99352.53;5111760;28;8836;-58
2022/01/10 00:58:43;;;;;;;;;7.80;7.80;;;;;4.77;84.74;99350.84;5112255;28;8832;-59
2022/01/10 01:01:11;;;;;;;;;6.80;4.40;;;;;4.77;84.18;99352.63;5111586;28;8843;-59
2022/01/10 01:03:39;;;;;;;;;8.00;7.00;;;;;4.76;84.38;99362.34;5111177;28;8858;-59
2022/01/10 01:06:07;;;;;;;;;7.40;6.00;;;;;4.76;84.36;99362.34;5111288;28;8827;-59
2022/01/10 01:08:35;;;;;;;;;6.80;4.40;;;;;4.76;84.46;99364.13;5112254;28;8859;-59
2022/01/10 01:13:53;;;;;;;;;4.80;4.80;;;;;4.77;84.56;99376.38;5111163;28;8875;-59
2022/01/10 01:16:42;;;;;;;;;6.20;5.60;;;;;4.76;84.41;99375.53;5099248;28;8834;-59
2022/01/10 01:24:36;;;;;;;;;4.20;3.40;;;;;4.78;84.45;99399.19;5090824;28;8845;-59
2022/01/10 01:27:04;;;;;;;;;10.80;9.40;;;;;4.78;84.45;99404.47;5090173;28;8938;-59
2022/01/10 01:29:33;;;;;;;;;6.00;6.00;;;;;4.77;84.62;99400.09;5090042;28;8876;-59
2022/01/10 01:32:01;;;;;;;;;6.40;5.60;;;;;4.77;84.80;99414.16;5089666;28;8850;-59
2022/01/10 01:34:29;;;;;;;;;3.60;3.20;;;;;4.76;84.32;99420.38;5088717;28;8846;-59
2022/01/10 01:36:57;;;;;;;;;4.80;4.80;;;;;4.77;84.35;99424.69;5089986;28;8833;-59
2022/01/10 01:39:25;;;;;;;;;7.00;7.00;;;;;4.77;84.32;99429.09;5089802;28;8850;-59
2022/01/10 01:41:54;;;;;;;;;12.00;9.20;;;;;4.76;84.30;99427.41;5091012;28;8885;-59
2022/01/10 01:44:21;;;;;;;;;6.00;6.00;;;;;4.74;84.45;99432.81;5091513;28;8873;-58
2022/01/10 01:46:50;;;;;;;;;6.40;5.00;;;;;4.75;84.59;99436.28;5105875;28;8808;-59
2022/01/10 01:49:17;;;;;;;;;9.40;8.60;;;;;4.75;84.44;99444.19;5111497;28;8856;-59
2022/01/10 01:51:45;;;;;;;;;4.80;4.40;;;;;4.75;84.36;99446.84;5112098;28;8869;-59
2022/01/10 01:54:13;;;;;;;;;3.80;3.80;;;;;4.75;84.58;99444.19;5110999;28;8966;-58
2022/01/10 01:56:41;;;;;;;;;7.40;6.20;;;;;4.75;84.46;99450.31;5111631;28;8831;-59
2022/01/10 01:59:09;;;;;;;;;10.40;7.80;;;;;4.75;85.10;99454.75;5110228;28;8992;-59
2022/01/10 02:01:37;;;;;;;;;9.60;9.00;;;;;4.75;84.87;99455.59;5109564;28;8840;-59
2022/01/10 02:04:05;;;;;;;;;5.20;5.20;;;;;4.75;84.91;99460.00;5111527;28;8843;-59
2022/01/10 02:06:32;;;;;;;;;6.80;6.40;;;;;4.75;84.38;99462.66;5111077;28;8835;-59
2022/01/10 02:09:00;;;;;;;;;5.60;5.60;;;;;4.76;84.47;99466.97;5110415;28;8848;-59
2022/01/10 02:11:28;;;;;;;;;4.80;4.00;;;;;4.76;84.32;99472.25;5092666;28;9463;-59
2022/01/10 02:13:55;;;;;;;;;7.00;6.40;;;;;4.75;84.40;99467.94;5091642;28;8872;-59
2022/01/10 02:16:33;;;;;;;;;4.80;4.00;;;;;4.76;84.59;99485.44;5090656;28;8838;-58
2022/01/10 02:19:01;;;;;;;;;5.60;5.60;;;;;4.74;84.65;99485.56;5089459;28;8851;-59
2022/01/10 02:21:28;;;;;;;;;9.40;9.00;;;;;4.75;84.25;99494.28;5090190;28;9015;-59
2022/01/10 02:23:57;;;;;;;;;11.20;9.40;;;;;4.74;84.50;99492.59;5090569;28;8965;-59
2022/01/10 02:26:25;;;;;;;;;6.00;4.40;;;;;4.74;84.20;99492.59;5089778;28;9561;-59
2022/01/10 02:28:53;;;;;;;;;8.20;8.20;;;;;4.73;84.55;99501.47;5091053;28;8841;-59
2022/01/10 02:31:20;;;;;;;;;8.80;7.80;;;;;4.73;84.67;99496.19;5090677;28;8846;-59
2022/01/10 02:33:56;;;;;;;;;10.00;7.00;;;;;4.73;84.57;99501.47;5090363;28;8860;-59
2022/01/10 02:36:26;;;;;;;;;7.00;6.40;;;;;4.73;84.25;99507.56;5090615;28;8907;-58
2022/01/10 02:38:53;;;;;;;;;9.00;7.00;;;;;4.71;84.87;99511.28;5089933;28;8846;-59
2022/01/10 02:41:21;;;;;;;;;4.80;4.80;;;;;4.72;84.21;99524.34;5089169;28;9496;-59
2022/01/10 02:43:49;;;;;;;;;9.20;8.80;;;;;4.73;84.06;99525.19;5088860;28;8872;-59
2022/01/10 02:46:17;;;;;;;;;3.80;3.00;;;;;4.73;84.26;99527.84;5091135;28;8926;-59
2022/01/10 02:48:45;;;;;;;;;4.80;4.00;;;;;4.73;84.52;99533.13;5090314;28;8856;-59
2022/01/10 02:51:12;;;;;;;;;6.00;6.00;;;;;4.73;84.28;99539.22;5090652;28;8972;-59
2022/01/10 02:53:40;;;;;;;;;1.60;0.40;;;;;4.71;84.63;99541.09;5089567;28;8872;-59
2022/01/10 02:56:08;;;;;;;;;6.00;6.00;;;;;4.69;84.65;99547.41;5089278;28;8845;-56
2022/01/10 02:58:36;;;;;;;;;4.60;3.40;;;;;4.66;84.87;99552.88;5089525;28;8834;-56
2022/01/10 03:01:03;;;;;;;;;4.00;3.60;;;;;4.63;84.61;99555.72;5090534;28;8838;-59
2022/01/10 03:03:31;;;;;;;;;6.00;6.00;;;;;4.59;84.28;99570.03;5088967;28;8841;-59
2022/01/10 03:05:59;;;;;;;;;9.20;8.60;;;;;4.55;85.16;99572.00;5090503;28;8846;-59
2022/01/10 03:08:27;;;;;;;;;5.20;3.60;;;;;4.51;84.81;99574.94;5107095;28;9501;-59
2022/01/10 03:10:55;;;;;;;;;6.60;6.60;;;;;4.46;84.92;99579.63;5109673;28;8870;-59
2022/01/10 03:13:22;;;;;;;;;5.60;4.80;;;;;4.40;85.14;99582.66;5110686;28;8848;-59
2022/01/10 03:15:50;;;;;;;;;9.40;8.40;;;;;4.35;84.83;99582.06;5110006;28;8864;-59
2022/01/10 03:18:18;;;;;;;;;4.40;4.40;;;;;4.30;85.12;99584.97;5109889;28;9111;-59
2022/01/10 03:20:46;;;;;;;;;5.60;4.00;;;;;4.25;85.30;99587.03;5107907;28;8865;-58
2022/01/10 03:23:25;;;;;;;;;7.00;7.00;;;;;4.20;85.42;99596.16;5108857;28;8840;-59
2022/01/10 03:25:53;;;;;;;;;5.60;5.60;;;;;4.12;85.17;99593.13;5108539;28;8852;-59
2022/01/10 03:28:21;;;;;;;;;5.60;5.60;;;;;4.03;85.38;99598.94;5108528;28;8847;-59
2022/01/10 03:30:49;;;;;;;;;3.20;2.60;;;;;3.94;85.76;99602.09;5109154;28;8836;-58
2022/01/10 03:33:16;;;;;;;;;3.00;3.00;;;;;3.84;85.48;99604.44;5109855;28;9344;-59
2022/01/10 03:35:44;;;;;;;;;4.00;4.00;;;;;3.74;86.13;99603.25;5110032;28;8832;-58
2022/01/10 03:38:12;;;;;;;;;8.60;7.40;;;;;3.67;85.95;99620.34;5089405;28;8852;-59
2022/01/10 03:40:40;;;;;;;;;6.80;4.80;;;;;3.61;85.97;99617.22;5090325;28;8858;-59
2022/01/10 03:43:08;;;;;;;;;6.80;6.80;;;;;3.54;86.47;99626.38;5089328;28;8841;-58
2022/01/10 03:45:36;;;;;;;;;3.60;3.60;;;;;3.46;86.61;99627.75;5090126;28;8842;-59
2022/01/10 03:48:04;;;;;;;;;5.80;4.80;;;;;3.37;86.22;99629.13;5089820;28;8956;-59
2022/01/10 03:50:32;;;;;;;;;4.80;4.00;;;;;3.29;86.30;99631.34;5087993;28;8861;-59
2022/01/10 03:52:59;;;;;;;;;6.80;6.20;;;;;3.21;86.29;99637.94;5090213;28;8872;-58
2022/01/10 03:55:27;;;;;;;;;4.80;4.00;;;;;3.13;86.70;99640.13;5094460;28;8856;-58
2022/01/10 03:57:55;;;;;;;;;4.00;4.00;;;;;3.05;86.54;99648.47;5093009;28;8879;-59
2022/01/10 04:00:23;;;;;;;;;5.60;4.00;;;;;2.98;87.05;99643.59;5093006;28;8837;-58
2022/01/10 04:02:55;;;;;;;;;4.00;4.00;;;;;2.93;87.05;99649.09;5093753;28;9574;-58
2022/01/10 04:05:23;;;;;;;;;6.40;5.60;;;;;2.90;86.72;99648.41;5093947;28;9523;-59
2022/01/10 04:07:51;;;;;;;;;4.60;4.40;;;;;2.90;86.88;99648.41;5108954;28;8898;-59
2022/01/10 04:10:18;;;;;;;;;5.80;4.40;;;;;2.88;87.53;99651.13;5113988;28;8828;-59
2022/01/10 04:12:46;;;;;;;;;6.00;5.20;;;;;2.86;87.24;99650.34;5114545;28;8874;-59
2022/01/10 04:15:14;;;;;;;;;6.80;6.60;;;;;2.80;86.94;99658.56;5113751;28;8955;-59
2022/01/10 04:17:42;;;;;;;;;3.60;3.60;;;;;2.75;86.84;99665.00;5113716;28;8836;-59
2022/01/10 04:20:09;;;;;;;;;4.80;4.00;;;;;2.67;87.32;99669.81;5114656;28;8852;-59
2022/01/10 04:22:37;;;;;;;;;3.20;3.20;;;;;2.62;87.43;99669.19;5113421;28;8836;-58
2022/01/10 04:25:05;;;;;;;;;3.60;3.00;;;;;2.58;87.38;99683.44;5114379;28;9549;-58
2022/01/10 04:27:33;;;;;;;;;4.80;4.00;;;;;2.53;87.26;99695.94;5112241;28;8882;-58
2022/01/10 04:30:00;;;;;;;;;2.20;1.00;;;;;2.47;87.82;99697.13;5114046;28;8859;-58
2022/01/10 04:32:31;;;;;;;;;3.80;3.80;;;;;2.41;87.47;99705.31;5112990;28;8840;-58
2022/01/10 04:34:58;;;;;;;;;5.60;4.00;;;;;2.36;87.24;99716.97;5113949;28;8843;-58
2022/01/10 04:37:26;;;;;;;;;5.60;4.80;;;;;2.31;87.41;99717.22;5097587;28;8838;-58
2022/01/10 04:39:54;;;;;;;;;3.40;3.00;;;;;2.29;87.56;99721.66;5093503;28;8947;-58
2022/01/10 04:42:21;;;;;;;;;4.40;3.80;;;;;2.29;87.01;99726.91;5092739;28;8885;-58
2022/01/10 04:44:50;;;;;;;;;5.00;5.00;;;;;2.28;87.30;99730.47;5092515;28;8879;-58
2022/01/10 04:47:17;;;;;;;;;4.00;4.00;;;;;2.26;87.35;99745.47;5091795;28;9528;-58
2022/01/10 04:50:04;;;;;;;;;3.00;3.00;;;;;2.24;87.47;99734.19;5092615;28;8858;-58
2022/01/10 04:52:32;;;;;;;;;4.00;3.40;;;;;2.22;88.29;99748.31;5092104;28;8865;-58
2022/01/10 04:55:00;;;;;;;;;2.60;2.60;;;;;2.18;87.72;99754.63;5091748;28;8868;-59
2022/01/10 04:57:27;;;;;;;;;7.60;6.40;;;;;2.11;87.79;99755.91;5092338;28;8838;-56
2022/01/10 04:59:55;;;;;;;;;3.60;3.20;;;;;2.06;87.47;99763.97;5092584;28;8976;-57
2022/01/10 05:02:23;;;;;;;;;0.80;0.80;;;;;2.05;88.26;99772.78;5093322;28;8830;-57
2022/01/10 05:04:51;;;;;;;;;6.20;5.40;;;;;2.07;87.67;99775.34;5091094;28;8868;-57
2022/01/10 05:07:19;;;;;;;;;6.00;5.60;;;;;2.09;88.11;99782.22;5103566;28;8852;-57
2022/01/10 05:09:46;;;;;;;;;5.60;5.60;;;;;2.08;87.68;99782.28;5113363;28;8873;-57
2022/01/10 05:12:14;;;;;;;;;1.40;0.20;;;;;2.09;87.77;99792.72;5112609;28;8851;-57
2022/01/10 05:14:42;;;;;;;;;3.00;1.00;;;;;2.10;87.91;99797.03;5112106;28;8875;-57
2022/01/10 05:17:11;;;;;;;;;6.60;6.40;;;;;2.10;88.08;99802.28;5112657;28;8854;-57
2022/01/10 05:19:38;;;;;;;;;3.40;3.00;;;;;2.11;87.67;99808.41;5112471;28;8836;-56
2022/01/10 05:22:06;;;;;;;;;5.20;4.80;;;;;2.13;88.04;99812.63;5111263;28;8861;-57
2022/01/10 05:24:34;;;;;;;;;4.40;4.00;;;;;2.17;87.73;99822.09;5111106;28;8848;-57
2022/01/10 05:27:02;;;;;;;;;6.20;5.00;;;;;2.18;87.58;99823.78;5109596;28;8859;-57
2022/01/10 05:29:29;;;;;;;;;6.40;6.40;;;;;2.20;87.34;99829.81;5111368;28;9540;-57
2022/01/10 05:31:57;;;;;;;;;4.00;4.00;;;;;2.24;87.21;99831.38;5111044;28;8859;-57
2022/01/10 05:34:25;;;;;;;;;8.20;7.00;;;;;2.30;87.60;99840.72;5110378;28;8840;-57
2022/01/10 05:36:53;;;;;;;;;7.00;6.00;;;;;2.35;87.66;99836.94;5098221;28;8846;-57
2022/01/10 05:39:20;;;;;;;;;3.80;3.60;;;;;2.38;87.54;99849.97;5090296;28;8862;-57
2022/01/10 05:41:48;;;;;;;;;3.00;3.00;;;;;2.43;87.68;99853.19;5089660;28;8886;-57
2022/01/10 05:44:15;;;;;;;;;7.80;7.80;;;;;2.47;87.06;99865.28;5089551;28;8850;-57
2022/01/10 05:46:44;;;;;;;;;8.20;7.00;;;;;2.54;87.25;99864.06;5089398;28;8980;-57
2022/01/10 05:49:14;;;;;;;;;7.80;6.60;;;;;2.58;86.73;99862.97;5091984;28;8896;-57
2022/01/10 05:51:41;;;;;;;;;8.60;7.40;;;;;2.63;86.68;99873.25;5109133;28;8847;-57
2022/01/10 05:54:09;;;;;;;;;4.00;4.00;;;;;2.68;86.91;99876.50;5110247;28;8839;-57
2022/01/10 05:56:37;;;;;;;;;6.20;6.20;;;;;2.71;86.63;99885.09;5109606;28;9067;-57
2022/01/10 05:59:04;;;;;;;;;8.60;6.80;;;;;2.73;86.62;99888.50;5109054;28;8865;-57
2022/01/10 06:01:32;;;;;;;;;3.40;2.60;;;;;2.75;87.07;99891.06;5107278;28;8875;-57
2022/01/10 06:04:00;;;;;;;;;6.60;5.20;;;;;2.75;86.44;99894.56;5107844;28;8890;-57
2022/01/10 06:06:28;;;;;;;;;6.80;6.00;;;;;2.75;86.95;99902.44;5109688;28;8851;-57
2022/01/10 06:08:55;;;;;;;;;6.60;6.60;;;;;2.75;86.37;99906.84;5096763;28;8838;-57
2022/01/10 06:11:23;;;;;;;;;4.40;0.00;;;;;2.73;86.89;99903.44;5086871;28;8826;-57
2022/01/10 06:13:51;;;;;;;;;12.20;11.00;;;;;2.69;86.65;99915.88;5087453;28;8834;-57
2022/01/10 06:16:19;;;;;;;;;10.40;7.40;;;;;2.69;86.95;99917.63;5085021;28;8873;-57
2022/01/10 06:18:46;;;;;;;;;5.80;3.60;;;;;2.69;87.08;99921.13;5084698;28;8848;-57
2022/01/10 06:21:14;;;;;;;;;9.20;8.20;;;;;2.68;86.27;99932.56;5083902;28;8846;-57
2022/01/10 06:23:41;;;;;;;;;8.80;8.80;;;;;2.69;86.75;99933.41;5085971;28;9938;-57
2022/01/10 06:26:09;;;;;;;;;7.00;5.60;;;;;2.68;86.92;99939.59;5081175;28;8850;-57
2022/01/10 06:28:37;;;;;;;;;8.40;7.80;;;;;2.69;87.04;99944.78;5082851;28;8849;-57
2022/01/10 06:31:05;;;;;;;;;3.00;3.00;;;;;2.71;87.32;99945.56;5083135;28;9231;-57
2022/01/10 06:33:33;;;;;;;;;10.00;9.00;;;;;2.71;87.08;99950.81;5079267;28;8950;-57
2022/01/10 06:36:00;;;;;;;;;12.60;11.60;;;;;2.72;87.05;99960.41;5081905;28;8931;-57
2022/01/10 06:38:30;;;;;;;;;6.20;5.60;;;;;2.72;86.47;99957.75;5081097;28;9225;-57
2022/01/10 06:40:58;;;;;;;;;8.20;7.00;;;;;2.73;86.21;99966.50;5080195;28;8845;-57
2022/01/10 06:43:26;;;;;;;;;5.60;5.60;;;;;2.72;86.34;99965.66;5072026;28;9484;-57
2022/01/10 06:45:54;;;;;;;;;10.40;10.40;;;;;2.73;86.63;99975.25;5079211;28;9168;-57
2022/01/10 06:48:22;;;;;;;;;7.40;7.00;;;;;2.74;86.54;99974.31;5080404;28;8862;-57
2022/01/10 06:50:50;;;;;;;;;9.60;9.60;;;;;2.74;87.13;99987.44;5079123;28;8837;-57
2022/01/10 06:53:17;;;;;;;;;8.00;7.40;;;;;2.74;86.78;99990.06;5078787;28;8850;-57
2022/01/10 06:55:45;;;;;;;;;11.60;11.60;;;;;2.76;86.59;99996.13;5077626;28;8848;-57
2022/01/10 06:58:13;;;;;;;;;14.20;13.40;;;;;2.78;86.26;99996.91;5078051;28;8886;-57
2022/01/10 07:00:41;;;;;;;;;3.40;2.60;;;;;2.78;86.96;99998.66;5076074;28;8842;-57
2022/01/10 07:03:09;;;;;;;;;6.80;6.40;;;;;2.79;86.29;99998.63;5074787;28;9532;-57
2022/01/10 07:05:37;;;;;;;;;12.20;9.60;;;;;2.80;87.01;100013.47;5076018;28;8877;-57
2022/01/10 07:08:04;;;;;;;;;7.40;6.40;;;;;2.79;86.60;100024.91;5078033;28;8880;-57
2022/01/10 07:10:32;;;;;;;;;7.40;6.20;;;;;2.79;86.65;100043.31;5077227;28;8865;-57
2022/01/10 07:13:00;;;;;;;;;8.00;7.00;;;;;2.80;87.10;100037.13;5075796;28;8859;-57
2022/01/10 07:15:29;;;;;;;;;12.00;8.60;;;;;2.80;86.78;100049.44;5079409;28;8851;-57
2022/01/10 07:17:56;;;;;;;;;13.00;12.00;;;;;2.80;86.84;100047.63;5078582;28;9083;-57
2022/01/10 07:20:24;;;;;;;;;1.00;1.00;;;;;2.81;86.61;100056.38;5076974;28;8845;-57
2022/01/10 07:22:52;;;;;;;;;9.00;8.60;;;;;2.81;87.03;100070.38;5073594;28;8854;-57
2022/01/10 07:25:20;;;;;;;;;8.20;8.20;;;;;2.82;86.73;100077.34;5074479;28;9151;-57
2022/01/10 07:27:50;;;;;;;;;7.20;6.00;;;;;2.84;86.63;100090.41;5075709;28;8838;-57
2022/01/10 07:30:17;;;;;;;;;14.20;11.60;;;;;2.85;87.01;100097.38;5082032;28;8850;-57
2022/01/10 07:32:45;;;;;;;;;8.60;8.20;;;;;2.87;87.06;100106.06;5077591;28;8857;-57
2022/01/10 07:35:13;;;;;;;;;6.20;6.20;;;;;2.88;87.04;100108.59;5079890;28;9115;-57
2022/01/10 07:37:41;;;;;;;;;9.80;7.80;;;;;2.90;86.53;100119.94;5080894;28;8905;-57
2022/01/10 07:40:08;;;;;;;;;6.60;6.00;;;;;2.93;86.77;100122.41;5081057;28;8846;-57
2022/01/10 07:42:36;;;;;;;;;7.40;4.40;;;;;2.95;86.85;100127.59;5081013;28;8878;-57
2022/01/10 07:45:04;;;;;;;;;6.40;6.00;;;;;2.95;86.42;100138.94;5080926;28;8837;-57
2022/01/10 07:47:31;;;;;;;;;5.40;5.40;;;;;2.97;86.69;100139.75;5079423;28;8853;-57
2022/01/10 07:49:59;;;;;;;;;7.80;7.00;;;;;2.98;86.56;100140.59;5081847;28;8877;-57
2022/01/10 07:52:29;;;;;;;;;5.20;4.00;;;;;3.01;85.87;100158.84;5081413;28;8882;-57
2022/01/10 07:54:57;;;;;;;;;9.00;8.60;;;;;3.04;86.27;100153.47;5078621;28;8888;-57
2022/01/10 07:57:25;;;;;;;;;10.00;9.00;;;;;3.05;86.65;100155.16;5080102;28;8857;-57
2022/01/10 07:59:52;;;;;;;;;9.20;6.60;;;;;3.06;86.10;100170.03;5081682;28;8849;-57
2022/01/10 08:02:21;;;;;;;;;0.80;0.80;;;;;3.07;86.08;100161.22;5081901;28;8842;-57
2022/01/10 08:04:49;;;;;;;;;7.80;7.80;;;;;3.09;86.39;100176.00;5083940;28;8976;-57
2022/01/10 08:07:17;;;;;;;;;11.80;9.80;;;;;3.09;86.46;100181.25;5082352;28;8878;-57
2022/01/10 08:09:44;;;;;;;;;3.00;2.20;;;;;3.08;86.28;100179.56;5083419;28;9742;-57
2022/01/10 08:12:13;;;;;;;;;6.80;5.00;;;;;3.09;86.79;100183.06;5081583;28;8864;-57
2022/01/10 08:14:41;;;;;;;;;4.40;4.00;;;;;3.10;86.21;100184.75;5082898;28;8850;-57
2022/01/10 08:17:08;;;;;;;;;8.40;4.40;;;;;3.10;86.55;100188.22;5081896;28;8837;-57
2022/01/10 08:19:36;;;;;;;;;5.60;5.60;;;;;3.11;86.10;100195.19;5080202;28;9496;-57
2022/01/10 08:22:04;;;;;;;;;12.40;10.80;;;;;3.11;86.15;100189.94;5079000;28;8861;-57
2022/01/10 08:24:32;;;;;;;;;9.00;9.00;;;;;3.13;86.34;100196.00;5080500;28;9287;-57
2022/01/10 08:27:00;;;;;;;;;4.40;4.40;;;;;3.16;86.01;100203.72;5081567;28;8972;-57
2022/01/10 08:29:29;;;;;;;;;9.00;8.20;;;;;3.20;86.15;100217.59;5080461;28;8872;-57
2022/01/10 08:31:56;;;;;;;;;3.20;1.40;;;;;3.22;86.05;100216.63;5078047;28;8861;-57
2022/01/10 08:34:26;;;;;;;;;7.00;6.60;;;;;3.26;86.31;100233.94;5077205;28;8862;-57
2022/01/10 08:36:55;;;;;;;;;11.00;9.80;;;;;3.31;86.48;100239.88;5077684;28;8862;-57
2022/01/10 08:39:22;;;;;;;;;8.60;7.80;;;;;3.36;86.13;100243.16;5078993;28;8854;-57
2022/01/10 08:41:50;;;;;;;;;9.20;9.20;;;;;3.42;86.41;100242.00;5079252;28;8946;-57
2022/01/10 08:44:18;;;;;;;;;9.80;8.60;;;;;3.47;86.12;100248.75;5078462;28;8880;-57
2022/01/10 08:46:46;;;;;;;;;11.80;10.20;;;;;3.51;86.36;100245.09;5079863;28;8876;-57
2022/01/10 08:49:14;;;;;;;;;10.00;8.80;;;;;3.56;85.96;100261.50;5077022;28;9131;-57
2022/01/10 08:51:42;;;;;;;;;7.40;7.00;;;;;3.58;85.55;100264.94;5080138;28;8852;-57
2022/01/10 08:54:09;;;;;;;;;7.40;4.60;;;;;3.62;85.37;100260.38;5079546;28;8922;-57
2022/01/10 08:56:39;;;;;;;;;8.20;7.80;;;;;3.67;85.29;100260.06;5079222;28;8854;-57
2022/01/10 08:59:07;;;;;;;;;9.00;7.00;;;;;3.70;85.85;100253.81;5078765;28;8893;-57
2022/01/10 09:01:35;;;;;;;;;7.00;6.40;;;;;3.73;85.43;100261.59;5075340;28;8854;-57
2022/01/10 09:04:03;;;;;;;;;7.40;7.40;;;;;3.80;85.22;100260.38;5078825;28;8838;-57
2022/01/10 09:06:31;;;;;;;;;9.40;8.60;;;;;3.87;85.70;100272.31;5078982;28;9119;-57
2022/01/10 09:08:58;;;;;;;;;10.60;10.40;;;;;3.92;84.81;100268.56;5075787;28;9734;-57
2022/01/10 09:11:26;;;;;;;;;14.00;13.40;;;;;3.96;85.00;100267.47;5077303;28;9169;-57
2022/01/10 09:13:55;;;;;;;;;14.60;12.00;;;;;4.01;84.99;100270.75;5077157;28;8853;-57
2022/01/10 09:16:22;;;;;;;;;3.00;2.60;;;;;4.06;85.28;100276.66;5075178;28;8858;-57
2022/01/10 09:18:50;;;;;;;;;9.40;8.20;;;;;4.12;84.77;100278.97;5072939;28;8846;-57
2022/01/10 09:21:18;;;;;;;;;9.00;9.00;;;;;4.18;85.52;100277.84;5077827;28;8857;-57
2022/01/10 09:23:46;;;;;;;;;7.00;6.60;;;;;4.24;85.52;100286.28;5078819;28;8841;-57
2022/01/10 09:26:13;;;;;;;;;10.60;9.00;;;;;4.32;84.98;100281.50;5077479;28;8882;-57
2022/01/10 09:28:42;;;;;;;;;6.00;4.80;;;;;4.34;84.36;100284.06;5077204;28;8838;-57
2022/01/10 09:31:10;;;;;;;;;6.00;6.00;;;;;4.39;84.70;100287.31;5076403;28;8876;-57
2022/01/10 09:33:38;;;;;;;;;6.80;6.80;;;;;4.40;84.75;100284.59;5076072;28;8858;-57
2022/01/10 09:36:06;;;;;;;;;7.80;7.80;;;;;4.47;84.48;100295.69;5074756;28;8841;-57
2022/01/10 09:38:33;;;;;;;;;6.00;6.00;;;;;4.51;84.49;100300.78;5076573;28;8900;-57
2022/01/10 09:41:01;;;;;;;;;9.00;8.20;;;;;4.59;84.26;100292.47;5071212;28;8860;-57
2022/01/10 09:43:29;;;;;;;;;9.80;7.00;;;;;4.67;84.19;100301.72;5072929;28;9563;-57
2022/01/10 09:45:57;;;;;;;;;8.60;7.00;;;;;4.78;84.05;100301.19;5075357;28;8882;-57
2022/01/10 09:48:24;;;;;;;;;7.00;6.80;;;;;4.89;83.72;100298.84;5075349;28;8849;-57
2022/01/10 09:51:12;;;;;;;;;9.00;9.00;;;;;5.01;83.73;100304.34;5076342;28;8893;-57
2022/01/10 09:53:40;;;;;;;;;7.20;6.80;;;;;5.16;83.35;100316.75;5077592;28;9519;-58
2022/01/10 09:56:07;;;;;;;;;8.00;7.20;;;;;5.30;83.10;100314.25;5076110;28;8838;-58
2022/01/10 09:58:35;;;;;;;;;8.00;7.40;;;;;5.42;83.17;100318.03;5075439;28;8984;-58
2022/01/10 10:01:03;;;;;;;;;12.40;9.80;;;;;5.47;82.82;100323.94;5073303;28;9115;-57
2022/01/10 10:03:31;;;;;;;;;8.60;7.00;;;;;5.49;82.30;100327.31;5076498;28;8942;-57
2022/01/10 10:05:59;;;;;;;;;3.40;3.40;;;;;5.46;82.83;100338.06;5078375;28;8850;-57
2022/01/10 10:08:26;;;;;;;;;11.40;10.00;;;;;5.39;82.80;100347.25;5073676;28;9137;-57
2022/01/10 10:10:54;;;;;;;;;9.00;7.00;;;;;5.30;82.97;100353.84;5073747;28;9534;-57
2022/01/10 10:13:22;;;;;;;;;7.40;7.00;;;;;5.24;83.24;100361.22;5075010;28;8887;-57
2022/01/10 10:15:50;;;;;;;;;11.80;10.80;;;;;5.17;83.54;100362.47;5074857;28;9640;-57
2022/01/10 10:18:18;;;;;;;;;10.00;9.80;;;;;5.15;83.59;100367.81;5074597;28;8869;-57
2022/01/10 10:20:46;;;;;;;;;4.40;3.20;;;;;5.19;83.27;100373.81;5072415;28;8857;-57
2022/01/10 10:23:19;;;;;;;;;9.00;7.80;;;;;5.33;82.73;100369.50;5076993;28;8850;-57
2022/01/10 10:25:47;;;;;;;;;3.80;3.20;;;;;5.44;82.80;100379.53;5077006;28;8872;-57
2022/01/10 10:28:15;;;;;;;;;9.00;6.80;;;;;5.46;83.23;100369.75;5073280;28;8880;-57
2022/01/10 10:30:42;;;;;;;;;6.00;4.00;;;;;5.59;83.00;100370.78;5074905;28;8854;-57
2022/01/10 10:33:10;;;;;;;;;3.00;3.00;;;;;6.03;82.23;100371.97;5069699;28;8858;-57
2022/01/10 10:35:38;;;;;;;;;8.00;7.00;;;;;6.57;81.11;100371.53;5072725;28;8860;-58
2022/01/10 10:38:06;;;;;;;;;10.00;9.00;;;;;6.92;80.00;100371.25;5069853;28;8893;-58
2022/01/10 10:40:33;;;;;;;;;11.80;11.20;;;;;7.33;79.71;100376.75;5070940;28;8858;-58
2022/01/10 10:43:01;;;;;;;;;6.40;4.00;;;;;7.78;78.85;100374.84;5072135;28;8857;-58
2022/01/10 10:45:29;;;;;;;;;6.80;6.20;;;;;7.90;78.74;100390.84;5075040;28;8963;-58
2022/01/10 10:47:59;;;;;;;;;6.20;5.20;;;;;7.75;78.84;100381.16;5074509;28;9139;-58
2022/01/10 10:50:29;;;;;;;;;7.80;7.00;;;;;7.58;79.42;100387.59;5071020;28;8900;-58
2022/01/10 10:52:57;;;;;;;;;12.40;11.60;;;;;7.42;80.11;100392.94;5075582;28;8923;-58
2022/01/10 10:55:24;;;;;;;;;14.40;11.80;;;;;7.28;80.47;100394.72;5075439;28;8841;-58
2022/01/10 10:57:52;;;;;;;;;9.60;9.40;;;;;7.19;80.42;100403.22;5075302;28;9138;-57
2022/01/10 11:00:20;;;;;;;;;12.80;11.60;;;;;7.10;80.32;100399.28;5070403;28;8876;-58
2022/01/10 11:02:48;;;;;;;;;6.80;6.60;;;;;7.07;81.10;100409.22;5072613;28;8854;-58
2022/01/10 11:05:16;;;;;;;;;7.40;7.40;;;;;7.21;80.98;100410.09;5072367;28;9258;-58
2022/01/10 11:07:43;;;;;;;;;10.80;10.00;;;;;7.98;79.59;100406.28;5073013;28;8874;-58
2022/01/10 11:10:14;;;;;;;;;6.80;4.40;;;;;8.67;77.98;100405.34;5072244;28;8872;-58
2022/01/10 11:12:42;;;;;;;;;10.60;9.40;;;;;8.88;77.43;100397.81;5071535;28;8873;-58
2022/01/10 11:15:11;;;;;;;;;3.75;3.75;;;;;8.82;77.02;100415.00;5067696;28;8849;-58
2022/01/10 11:17:39;;;;;;;;;11.00;9.75;;;;;8.67;77.63;100418.63;5070768;28;9178;-58
2022/01/10 11:20:08;;;;;;;;;11.00;10.50;;;;;8.48;77.50;100420.78;5069475;28;9523;-57
2022/01/10 11:22:36;;;;;;;;;8.00;8.00;;;;;8.27;78.53;100424.78;5070124;28;9231;-58
2022/01/10 11:25:04;;;;;;;;;6.00;6.00;;;;;8.17;78.93;100434.22;5072840;28;8845;-58
2022/01/10 11:27:32;;;;;;;;;10.50;10.50;;;;;8.09;78.76;100428.53;5073132;28;8888;-57
2022/01/10 11:30:00;;;;;;;;;6.25;4.50;;;;;8.03;79.13;100434.22;5070704;28;8853;-58
2022/01/10 11:32:30;;;;;;;;;10.00;9.60;;;;;8.14;79.16;100442.34;5071270;28;8849;-58
2022/01/10 11:34:58;;;;;;;;;13.40;12.00;;;;;8.44;78.50;100437.81;5070541;28;8886;-58
2022/01/10 11:37:26;;;;;;;;;10.00;8.00;;;;;9.19;77.01;100435.53;5072777;28;9151;-58
2022/01/10 11:39:53;;;;;;;;;6.50;6.00;;;;;9.49;76.39;100435.31;5072882;28;8857;-58
2022/01/10 11:42:22;;;;;;;;;9.00;9.00;;;;;9.68;76.14;100433.97;5075274;28;9397;-58
2022/01/10 11:44:50;;;;;;;;;8.00;8.00;;;;;10.29;74.53;100434.09;5071853;28;8862;-58
2022/01/10 11:47:18;;;;;;;;;8.00;6.75;;;;;10.96;73.12;100428.28;5071203;28;8868;-58
2022/01/10 11:49:47;;;;;;;;;8.00;6.50;;;;;11.61;72.23;100428.72;5070509;28;8841;-58
2022/01/10 11:52:15;;;;;;;;;9.50;7.50;;;;;12.28;70.92;100423.38;5071145;28;8853;-58
2022/01/10 11:54:43;;;;;;;;;3.00;1.00;;;;;12.54;70.34;100433.69;5072527;28;8866;-58
2022/01/10 11:57:11;;;;;;;;;7.00;7.00;;;;;12.59;70.81;100427.97;5075254;28;8861;-58